Time;durP1;ratioP1;P1;durP2;ratioP2;P2;SDS_P1;SDS_P2;PMS_P1;PMS_P2;Temp;Humidity;BMP_temperature;BMP_pressure;BME280_temperature;BME280_humidity;BME280_pressure;Samples;Min_cycle;Max_cycle;Signal;HPM_P1;HPM_P2
2023/01/27 00:00:21;;;;;;;36.23;13.27;;;;;;;;;;4984918;28;20041;-76
2023/01/27 00:02:47;;;;;;;36.67;12.97;;;;;;;;;;4998955;28;20030;-77
2023/01/27 00:05:29;;;;;;;35.13;13.33;;;;;;;;;;5113412;27;20836;-76
2023/01/27 00:07:57;;;;;;;32.23;12.20;;;;;;;;;;5111680;28;20480;-76
2023/01/27 00:10:24;;;;;;;39.33;14.43;;;;;;;;;;5096674;28;20088;-76
2023/01/27 00:15:34;;;;;;;48.33;15.33;;;;;;;;;;5072358;28;20524;-76
2023/01/27 00:18:01;;;;;;;43.17;13.70;;;;;;;;;;5071237;28;20035;-76
2023/01/27 00:26:22;;;;;;;36.37;12.80;;;;;;;;;;5049850;28;20029;-76
2023/01/27 00:28:48;;;;;;;46.63;14.53;;;;;;;;;;5099204;28;20032;-76
2023/01/27 00:34:07;;;;;;;34.47;12.83;;;;;;;;;;5092088;28;20039;-76
2023/01/27 00:36:34;;;;;;;40.03;13.47;;;;;;;;;;5101982;28;20039;-76
2023/01/27 00:39:00;;;;;;;48.27;14.30;;;;;;;;;;5111265;28;20055;-76
2023/01/27 00:41:27;;;;;;;36.20;13.30;;;;;;;;;;5102105;28;20082;-76
2023/01/27 00:43:53;;;;;;;42.13;13.77;;;;;;;;;;5083717;28;20035;-76
2023/01/27 00:46:20;;;;;;;39.80;14.30;;;;;;;;;;5081301;28;20107;-76
2023/01/27 00:48:49;;;;;;;35.33;13.10;;;;;;;;;;5082791;28;20047;-76
2023/01/27 00:51:16;;;;;;;40.37;12.67;;;;;;;;;;5097493;28;21541;-76
2023/01/27 00:53:42;;;;;;;32.67;13.73;;;;;;;;;;5078757;28;20498;-76
2023/01/27 00:56:08;;;;;;;40.10;12.43;;;;;;;;;;5088652;28;20120;-76
2023/01/27 00:58:34;;;;;;;39.57;12.87;;;;;;;;;;5095932;28;20028;-76
2023/01/27 01:01:04;;;;;;;37.60;13.40;;;;;;;;;;5082083;28;20039;-76
2023/01/27 01:03:31;;;;;;;35.60;12.07;;;;;;;;;;5091162;28;20071;-76
2023/01/27 01:05:57;;;;;;;32.07;12.23;;;;;;;;;;5079713;28;20486;-76
2023/01/27 01:08:26;;;;;;;28.83;10.57;;;;;;;;;;5078176;28;20070;-76
2023/01/27 01:10:52;;;;;;;26.23;10.57;;;;;;;;;;5097709;28;20033;-75
2023/01/27 01:13:18;;;;;;;25.20;11.57;;;;;;;;;;5094325;28;20463;-76
2023/01/27 01:15:44;;;;;;;27.43;11.27;;;;;;;;;;5073025;28;20055;-76
2023/01/27 01:18:11;;;;;;;29.73;11.67;;;;;;;;;;5082509;28;20052;-75
2023/01/27 01:20:38;;;;;;;23.23;12.23;;;;;;;;;;5079295;28;20140;-75
2023/01/27 01:23:05;;;;;;;27.93;12.77;;;;;;;;;;5077961;28;20793;-75
2023/01/27 01:25:31;;;;;;;27.47;12.83;;;;;;;;;;5072277;28;20021;-76
2023/01/27 01:27:57;;;;;;;25.63;12.20;;;;;;;;;;5068032;28;20078;-76
2023/01/27 01:30:25;;;;;;;26.83;11.13;;;;;;;;;;5080749;28;20025;-76
2023/01/27 01:32:51;;;;;;;27.00;12.13;;;;;;;;;;5066542;28;20090;-75
2023/01/27 01:35:18;;;;;;;29.23;11.87;;;;;;;;;;5069216;28;20050;-76
2023/01/27 01:37:44;;;;;;;24.33;12.33;;;;;;;;;;5066011;28;20025;-76
2023/01/27 01:40:13;;;;;;;28.80;12.80;;;;;;;;;;5064011;28;20024;-74
2023/01/27 01:42:52;;;;;;;26.77;12.50;;;;;;;;;;5065796;28;20028;-75
2023/01/27 01:45:38;;;;;;;22.53;11.27;;;;;;;;;;5074651;28;20040;-75
2023/01/27 01:48:10;;;;;;;24.90;9.47;;;;;;;;;;5081589;28;20077;-76
2023/01/27 01:50:38;;;;;;;25.45;12.65;;;;;;;;;;5081059;28;20025;-76
2023/01/27 01:53:06;;;;;;;31.07;12.57;;;;;;;;;;5079554;28;20095;-75
2023/01/27 01:55:36;;;;;;;26.80;13.10;;;;;;;;;;5080713;28;20102;-76
2023/01/27 01:58:02;;;;;;;25.37;12.77;;;;;;;;;;5067450;28;20028;-76
2023/01/27 02:00:28;;;;;;;29.33;12.60;;;;;;;;;;5065204;28;20017;-76
2023/01/27 02:02:57;;;;;;;32.67;14.00;;;;;;;;;;5070422;28;21726;-76
2023/01/27 02:05:25;;;;;;;27.07;12.30;;;;;;;;;;5066597;28;20024;-76
2023/01/27 02:08:10;;;;;;;22.57;11.37;;;;;;;;;;5083267;28;20021;-75
2023/01/27 02:10:36;;;;;;;24.03;12.53;;;;;;;;;;5080200;28;20032;-76
2023/01/27 02:13:02;;;;;;;27.43;13.70;;;;;;;;;;5063591;28;20112;-75
2023/01/27 02:15:29;;;;;;;26.37;12.77;;;;;;;;;;5064468;28;20111;-76
2023/01/27 02:17:55;;;;;;;25.53;12.63;;;;;;;;;;5067214;28;20054;-76
2023/01/27 02:20:21;;;;;;;28.67;13.33;;;;;;;;;;5075553;28;20060;-76
2023/01/27 02:23:06;;;;;;;27.17;12.07;;;;;;;;;;5066306;28;20039;-76
2023/01/27 02:25:37;;;;;;;22.80;12.20;;;;;;;;;;5062907;28;20032;-75
2023/01/27 02:28:07;;;;;;;27.13;13.37;;;;;;;;;;5064430;28;20028;-76
2023/01/27 02:30:33;;;;;;;31.97;13.93;;;;;;;;;;5064433;28;20020;-76
2023/01/27 02:32:59;;;;;;;19.33;10.40;;;;;;;;;;5065187;28;20461;-75
2023/01/27 02:35:34;;;;;;;26.93;15.17;;;;;;;;;;5064992;28;20670;-76
2023/01/27 02:38:00;;;;;;;25.90;13.07;;;;;;;;;;5081269;28;20100;-76
2023/01/27 02:40:26;;;;;;;23.67;13.67;;;;;;;;;;5064113;28;20021;-76
2023/01/27 02:42:56;;;;;;;28.27;12.33;;;;;;;;;;5089166;28;20452;-76
2023/01/27 02:45:25;;;;;;;21.03;11.47;;;;;;;;;;5078787;28;20039;-76
2023/01/27 02:47:51;;;;;;;22.73;10.80;;;;;;;;;;5075833;28;20082;-76
2023/01/27 02:50:19;;;;;;;22.17;10.10;;;;;;;;;;5074776;28;20034;-76
2023/01/27 02:52:45;;;;;;;13.53;8.40;;;;;;;;;;5095421;28;20046;-77
2023/01/27 02:55:11;;;;;;;19.63;8.83;;;;;;;;;;5094870;28;20028;-76
2023/01/27 02:57:37;;;;;;;15.70;7.23;;;;;;;;;;5078596;28;20314;-76
2023/01/27 03:00:03;;;;;;;14.17;6.40;;;;;;;;;;5075836;28;20027;-76
2023/01/27 03:02:29;;;;;;;15.00;6.73;;;;;;;;;;5077128;28;20025;-76
2023/01/27 03:04:56;;;;;;;9.67;5.90;;;;;;;;;;5073759;28;20047;-76
2023/01/27 03:07:22;;;;;;;13.20;6.43;;;;;;;;;;5071352;28;20025;-76
2023/01/27 03:09:48;;;;;;;12.57;5.50;;;;;;;;;;5065887;28;20059;-76
2023/01/27 03:12:20;;;;;;;12.63;4.93;;;;;;;;;;5074532;28;20049;-77
2023/01/27 03:20:22;;;;;;;11.47;4.80;;;;;;;;;;5084917;28;20105;-76
2023/01/27 03:22:48;;;;;;;9.63;4.20;;;;;;;;;;5080791;28;20106;-76
2023/01/27 03:25:15;;;;;;;7.70;5.50;;;;;;;;;;5083537;28;20028;-76
2023/01/27 03:27:41;;;;;;;5.97;3.50;;;;;;;;;;5085142;28;20024;-76
2023/01/27 03:30:08;;;;;;;11.43;3.87;;;;;;;;;;5074013;28;20457;-76
2023/01/27 03:32:37;;;;;;;9.27;3.73;;;;;;;;;;5076440;28;20436;-76
2023/01/27 03:35:03;;;;;;;7.13;3.90;;;;;;;;;;5079162;28;20425;-76
2023/01/27 03:48:34;;;;;;;7.80;4.50;;;;;;;;;;5095238;28;20047;-76
2023/01/27 03:51:06;;;;;;;11.13;5.07;;;;;;;;;;5074163;28;20028;-77
2023/01/27 03:53:33;;;;;;;10.25;5.25;;;;;;;;;;5079305;28;20091;-76
2023/01/27 03:55:59;;;;;;;11.17;5.27;;;;;;;;;;5077601;28;20047;-76
2023/01/27 03:58:33;;;;;;;10.07;5.43;;;;;;;;;;5094436;28;20105;-76
2023/01/27 04:01:07;;;;;;;10.33;6.20;;;;;;;;;;5075355;28;20081;-76
2023/01/27 04:09:12;;;;;;;11.25;6.15;;;;;;;;;;5075568;28;20040;-75
2023/01/27 04:14:24;;;;;;;10.03;5.67;;;;;;;;;;5061559;28;20047;-76
2023/01/27 04:16:51;;;;;;;12.30;6.40;;;;;;;;;;5076566;28;20035;-76
2023/01/27 04:19:17;;;;;;;12.33;6.60;;;;;;;;;;5074698;28;20040;-76
2023/01/27 04:21:43;;;;;;;17.27;8.20;;;;;;;;;;5081496;28;20024;-76
2023/01/27 04:24:16;;;;;;;14.13;6.90;;;;;;;;;;5093889;28;20115;-76
2023/01/27 04:26:45;;;;;;;12.32;6.80;;;;;;;;;;5054167;28;20025;-76
2023/01/27 04:29:14;;;;;;;13.83;6.70;;;;;;;;;;5086442;28;20047;-76
2023/01/27 04:31:40;;;;;;;18.77;9.30;;;;;;;;;;5085259;28;20027;-76
2023/01/27 04:34:06;;;;;;;18.47;8.37;;;;;;;;;;5093815;28;20063;-76
2023/01/27 04:36:32;;;;;;;15.03;7.87;;;;;;;;;;5094645;28;20440;-76
2023/01/27 04:38:58;;;;;;;12.53;7.03;;;;;;;;;;5093814;28;20114;-76
2023/01/27 04:41:25;;;;;;;12.93;7.33;;;;;;;;;;5086261;28;20052;-76
2023/01/27 04:43:51;;;;;;;17.93;9.10;;;;;;;;;;5073661;28;20290;-76
2023/01/27 04:46:19;;;;;;;18.13;8.93;;;;;;;;;;5073299;28;20433;-76
2023/01/27 04:48:45;;;;;;;24.03;9.73;;;;;;;;;;5092033;28;20024;-76
2023/01/27 04:51:11;;;;;;;18.43;8.50;;;;;;;;;;5095309;28;20304;-77
2023/01/27 04:53:37;;;;;;;19.53;8.50;;;;;;;;;;5089439;28;20098;-76
2023/01/27 04:56:08;;;;;;;13.37;7.30;;;;;;;;;;5078021;28;20032;-76
2023/01/27 04:58:34;;;;;;;15.63;8.90;;;;;;;;;;5076764;28;20136;-76
2023/01/27 05:01:00;;;;;;;17.17;8.43;;;;;;;;;;5076808;28;20309;-76
2023/01/27 05:03:26;;;;;;;18.97;9.13;;;;;;;;;;5076851;28;20048;-76
2023/01/27 05:05:58;;;;;;;18.20;8.63;;;;;;;;;;5078148;28;20032;-76
2023/01/27 05:08:24;;;;;;;15.67;8.90;;;;;;;;;;5076723;28;20046;-76
2023/01/27 05:10:51;;;;;;;17.80;9.83;;;;;;;;;;5095952;28;20670;-76
2023/01/27 05:13:17;;;;;;;14.43;9.07;;;;;;;;;;5096943;28;20036;-76
2023/01/27 05:15:45;;;;;;;18.97;9.33;;;;;;;;;;5097026;28;20344;-76
2023/01/27 05:18:14;;;;;;;16.93;8.90;;;;;;;;;;5079996;28;20777;-76
2023/01/27 05:20:40;;;;;;;17.27;8.90;;;;;;;;;;5098408;28;20325;-76
2023/01/27 05:25:50;;;;;;;16.23;9.17;;;;;;;;;;5087327;28;20042;-75
2023/01/27 05:28:16;;;;;;;20.00;9.30;;;;;;;;;;5085745;28;20032;-76
2023/01/27 05:30:42;;;;;;;17.27;7.60;;;;;;;;;;5096501;28;20036;-76
2023/01/27 05:33:09;;;;;;;15.30;7.70;;;;;;;;;;5081412;28;20090;-75
2023/01/27 05:35:37;;;;;;;16.27;7.80;;;;;;;;;;5078399;28;20025;-76
2023/01/27 05:38:04;;;;;;;17.77;8.37;;;;;;;;;;5083605;28;20060;-76
2023/01/27 05:40:30;;;;;;;13.87;7.93;;;;;;;;;;5076493;28;20483;-75
2023/01/27 05:42:56;;;;;;;15.70;7.67;;;;;;;;;;5076284;28;20369;-75
2023/01/27 05:45:22;;;;;;;14.87;8.20;;;;;;;;;;5075970;28;20282;-75
2023/01/27 05:47:49;;;;;;;15.10;8.53;;;;;;;;;;5093261;28;20118;-76
2023/01/27 05:50:15;;;;;;;15.77;8.07;;;;;;;;;;5076210;28;20425;-76
2023/01/27 05:52:41;;;;;;;13.67;6.97;;;;;;;;;;5076181;28;20025;-76
2023/01/27 05:55:07;;;;;;;15.13;7.93;;;;;;;;;;5088687;28;20376;-75
2023/01/27 05:57:33;;;;;;;18.70;8.60;;;;;;;;;;5088394;28;20045;-76
2023/01/27 05:59:59;;;;;;;16.67;8.60;;;;;;;;;;5086633;28;20094;-75
2023/01/27 06:02:25;;;;;;;17.40;8.43;;;;;;;;;;5075532;28;20115;-76
2023/01/27 06:04:51;;;;;;;15.57;9.23;;;;;;;;;;5075928;28;20032;-76
2023/01/27 06:07:19;;;;;;;19.87;10.10;;;;;;;;;;5088507;28;20516;-76
2023/01/27 06:09:45;;;;;;;18.77;9.00;;;;;;;;;;5089831;28;20029;-76
2023/01/27 06:12:14;;;;;;;18.03;9.00;;;;;;;;;;5075623;28;20028;-75
2023/01/27 06:14:42;;;;;;;19.47;9.00;;;;;;;;;;5075779;28;20032;-76
2023/01/27 06:17:08;;;;;;;17.20;9.67;;;;;;;;;;5078719;28;20103;-76
2023/01/27 06:19:34;;;;;;;18.97;10.73;;;;;;;;;;5088306;28;20071;-76
2023/01/27 06:22:01;;;;;;;20.17;10.27;;;;;;;;;;5080044;28;20429;-76
2023/01/27 06:24:27;;;;;;;18.97;10.57;;;;;;;;;;5078032;28;20024;-75
2023/01/27 06:26:55;;;;;;;24.23;11.60;;;;;;;;;;5076143;28;20029;-76
2023/01/27 06:29:21;;;;;;;20.87;10.83;;;;;;;;;;5095129;28;20035;-76
2023/01/27 06:31:47;;;;;;;20.10;11.33;;;;;;;;;;5098184;28;20413;-75
2023/01/27 06:34:12;;;;;;;20.50;10.23;;;;;;;;;;5079278;28;20064;-76
2023/01/27 06:36:38;;;;;;;19.20;11.00;;;;;;;;;;5076338;28;20429;-76
2023/01/27 06:39:04;;;;;;;22.20;10.50;;;;;;;;;;5075072;28;20170;-75
2023/01/27 06:41:30;;;;;;;15.30;8.93;;;;;;;;;;5076057;28;20029;-75
2023/01/27 06:43:59;;;;;;;18.63;10.63;;;;;;;;;;5064001;28;20607;-75
2023/01/27 06:46:25;;;;;;;18.60;10.93;;;;;;;;;;5064727;28;20029;-75
2023/01/27 06:48:51;;;;;;;21.17;10.87;;;;;;;;;;5063051;28;21778;-75
2023/01/27 06:51:17;;;;;;;18.00;10.23;;;;;;;;;;5072410;28;20127;-75
2023/01/27 06:53:43;;;;;;;19.03;10.07;;;;;;;;;;5064363;28;20024;-74
2023/01/27 06:56:09;;;;;;;17.50;11.23;;;;;;;;;;5081876;28;20040;-75
2023/01/27 06:58:35;;;;;;;16.77;9.40;;;;;;;;;;5070685;28;20039;-75
2023/01/27 07:01:01;;;;;;;20.40;11.77;;;;;;;;;;5065891;28;20051;-75
2023/01/27 07:03:27;;;;;;;17.63;11.00;;;;;;;;;;5063958;28;20110;-75
2023/01/27 07:05:53;;;;;;;17.70;10.60;;;;;;;;;;5062477;28;20461;-74
2023/01/27 07:08:21;;;;;;;18.63;10.50;;;;;;;;;;5066562;28;20039;-75
2023/01/27 07:10:47;;;;;;;18.07;10.63;;;;;;;;;;5062851;28;20025;-74
2023/01/27 07:13:14;;;;;;;18.43;11.90;;;;;;;;;;5062942;28;20499;-75
2023/01/27 07:15:40;;;;;;;19.07;11.50;;;;;;;;;;5064916;28;20071;-76
2023/01/27 07:18:09;;;;;;;20.53;12.27;;;;;;;;;;5079578;28;20028;-75
2023/01/27 07:20:37;;;;;;;17.03;10.20;;;;;;;;;;5064028;28;20036;-78
2023/01/27 07:23:05;;;;;;;19.83;11.43;;;;;;;;;;5080858;28;20433;-75
2023/01/27 07:25:31;;;;;;;24.97;12.17;;;;;;;;;;5077857;28;20028;-76
2023/01/27 07:27:58;;;;;;;23.13;12.23;;;;;;;;;;5065824;28;20036;-76
2023/01/27 07:30:26;;;;;;;19.27;12.47;;;;;;;;;;5072908;28;20047;-76
2023/01/27 07:32:55;;;;;;;21.77;12.70;;;;;;;;;;5063509;28;20025;-75
2023/01/27 07:35:22;;;;;;;17.97;11.30;;;;;;;;;;5065348;28;20028;-75
2023/01/27 07:37:48;;;;;;;19.50;12.53;;;;;;;;;;5061971;28;20033;-76
2023/01/27 07:40:14;;;;;;;22.20;12.93;;;;;;;;;;5067979;28;20403;-76
2023/01/27 07:42:40;;;;;;;18.60;11.63;;;;;;;;;;5065670;28;20094;-76
2023/01/27 07:45:06;;;;;;;17.93;10.70;;;;;;;;;;5066096;28;20449;-76
2023/01/27 07:47:32;;;;;;;19.93;11.47;;;;;;;;;;5062559;28;20029;-76
2023/01/27 07:49:58;;;;;;;17.97;11.97;;;;;;;;;;5064514;28;20089;-76
2023/01/27 07:52:26;;;;;;;20.13;12.23;;;;;;;;;;5079057;28;20028;-76
2023/01/27 07:54:52;;;;;;;19.37;12.60;;;;;;;;;;5069254;28;20029;-76
2023/01/27 07:57:18;;;;;;;21.17;11.57;;;;;;;;;;5075544;28;20261;-76
2023/01/27 07:59:44;;;;;;;20.13;11.80;;;;;;;;;;5063149;28;20043;-76
2023/01/27 08:02:10;;;;;;;18.67;11.83;;;;;;;;;;5063857;28;20025;-76
2023/01/27 08:04:36;;;;;;;20.70;11.67;;;;;;;;;;5063954;28;20162;-75
2023/01/27 08:07:02;;;;;;;19.23;12.03;;;;;;;;;;5067553;28;20120;-76
2023/01/27 08:09:28;;;;;;;17.43;10.83;;;;;;;;;;5061773;28;20029;-76
2023/01/27 08:11:56;;;;;;;16.97;11.33;;;;;;;;;;5062178;28;20501;-76
2023/01/27 08:14:22;;;;;;;19.30;12.17;;;;;;;;;;5067819;28;20472;-75
2023/01/27 08:16:51;;;;;;;18.03;12.60;;;;;;;;;;5063210;28;20034;-76
2023/01/27 08:19:17;;;;;;;19.00;11.80;;;;;;;;;;5063925;28;20041;-76
2023/01/27 08:21:43;;;;;;;18.17;12.00;;;;;;;;;;5062041;28;20036;-76
2023/01/27 08:24:11;;;;;;;20.50;12.33;;;;;;;;;;5071264;28;20043;-75
2023/01/27 08:26:37;;;;;;;18.57;12.03;;;;;;;;;;5080624;28;20039;-76
2023/01/27 08:29:03;;;;;;;21.80;13.20;;;;;;;;;;5066391;28;21658;-76
2023/01/27 08:31:29;;;;;;;20.10;13.77;;;;;;;;;;5065977;28;20475;-76
2023/01/27 08:33:55;;;;;;;20.33;13.10;;;;;;;;;;5066657;28;20024;-76
2023/01/27 08:36:22;;;;;;;20.97;13.00;;;;;;;;;;5070041;28;20342;-76
2023/01/27 08:38:48;;;;;;;23.77;12.87;;;;;;;;;;5066754;28;20365;-76
2023/01/27 08:41:15;;;;;;;24.47;15.63;;;;;;;;;;5086104;28;20028;-76
2023/01/27 08:43:41;;;;;;;20.83;14.30;;;;;;;;;;5074266;28;20142;-75
2023/01/27 08:46:07;;;;;;;20.90;13.97;;;;;;;;;;5077727;28;20454;-76
2023/01/27 08:48:34;;;;;;;24.70;14.37;;;;;;;;;;5077068;28;20032;-76
2023/01/27 08:51:00;;;;;;;22.23;13.60;;;;;;;;;;5089943;28;20103;-76
2023/01/27 08:53:27;;;;;;;24.23;15.33;;;;;;;;;;5098523;28;20028;-76
2023/01/27 08:55:55;;;;;;;20.97;14.73;;;;;;;;;;5085220;28;20056;-77
2023/01/27 08:58:21;;;;;;;21.33;14.20;;;;;;;;;;5077216;28;20056;-76
2023/01/27 09:00:47;;;;;;;22.17;13.50;;;;;;;;;;5077937;28;20122;-76
2023/01/27 09:03:13;;;;;;;20.53;13.50;;;;;;;;;;5080254;28;20433;-77
2023/01/27 09:05:39;;;;;;;18.33;11.90;;;;;;;;;;5086041;28;20133;-77
2023/01/27 09:08:06;;;;;;;16.33;11.97;;;;;;;;;;5087319;28;20024;-76
2023/01/27 09:10:35;;;;;;;17.83;12.13;;;;;;;;;;5084590;28;20021;-76
2023/01/27 09:13:02;;;;;;;17.50;11.83;;;;;;;;;;5094166;28;20364;-76
2023/01/27 09:15:28;;;;;;;17.90;11.77;;;;;;;;;;5097326;28;20027;-76
2023/01/27 09:17:54;;;;;;;19.70;12.23;;;;;;;;;;5081735;28;20025;-76
2023/01/27 09:20:22;;;;;;;16.73;10.80;;;;;;;;;;5078832;28;20025;-77
2023/01/27 09:22:48;;;;;;;17.67;10.63;;;;;;;;;;5097029;28;20024;-76
2023/01/27 09:25:16;;;;;;;12.13;7.63;;;;;;;;;;5087691;28;20457;-76
2023/01/27 09:27:42;;;;;;;13.27;9.27;;;;;;;;;;5088609;28;20106;-76
2023/01/27 09:30:09;;;;;;;12.30;8.70;;;;;;;;;;5092705;28;20059;-76
2023/01/27 09:32:35;;;;;;;12.57;8.63;;;;;;;;;;5079574;28;20456;-77
2023/01/27 09:35:01;;;;;;;15.13;9.17;;;;;;;;;;5091347;28;20032;-75
2023/01/27 09:37:27;;;;;;;10.40;7.30;;;;;;;;;;5075828;28;20392;-76
2023/01/27 09:39:58;;;;;;;18.30;10.83;;;;;;;;;;5078398;28;20126;-76
2023/01/27 09:42:30;;;;;;;9.63;7.30;;;;;;;;;;5076728;28;20043;-76
2023/01/27 09:45:11;;;;;;;7.93;4.97;;;;;;;;;;5065560;28;20443;-76
2023/01/27 09:47:50;;;;;;;7.53;5.07;;;;;;;;;;5087505;28;20025;-75
2023/01/27 09:50:19;;;;;;;4.47;4.03;;;;;;;;;;5076627;28;20031;-76
2023/01/27 09:52:57;;;;;;;8.00;5.50;;;;;;;;;;5076704;28;20029;-76
2023/01/27 09:55:23;;;;;;;5.00;3.73;;;;;;;;;;5078423;28;20054;-76
2023/01/27 09:58:07;;;;;;;5.53;3.90;;;;;;;;;;5076740;28;20111;-76
2023/01/27 10:00:33;;;;;;;5.63;3.60;;;;;;;;;;5076993;28;20024;-76
2023/01/27 10:03:18;;;;;;;4.70;3.80;;;;;;;;;;5087721;28;20035;-76
2023/01/27 10:06:00;;;;;;;5.60;4.17;;;;;;;;;;5097112;28;20067;-76
2023/01/27 10:08:26;;;;;;;4.80;2.97;;;;;;;;;;5064464;28;20492;-76
2023/01/27 10:11:12;;;;;;;3.97;3.43;;;;;;;;;;5096452;28;20055;-76
2023/01/27 10:13:38;;;;;;;3.87;3.47;;;;;;;;;;5089151;28;20106;-76
2023/01/27 10:16:19;;;;;;;6.43;4.90;;;;;;;;;;5075451;28;20433;-76
2023/01/27 10:18:51;;;;;;;4.07;3.20;;;;;;;;;;5081150;28;20028;-76
2023/01/27 10:21:29;;;;;;;5.10;4.10;;;;;;;;;;5094569;28;20036;-76
2023/01/27 10:24:17;;;;;;;4.70;3.37;;;;;;;;;;5081496;28;20032;-76
2023/01/27 10:26:49;;;;;;;4.87;3.73;;;;;;;;;;5100763;28;20499;-77
2023/01/27 10:29:15;;;;;;;5.50;3.28;;;;;;;;;;5083729;28;20024;-76
2023/01/27 10:31:48;;;;;;;4.20;2.80;;;;;;;;;;5084265;28;20033;-76
2023/01/27 10:34:19;;;;;;;5.13;3.55;;;;;;;;;;5076153;28;20082;-76
2023/01/27 10:36:48;;;;;;;5.50;4.15;;;;;;;;;;5093141;28;20038;-76
2023/01/27 10:39:14;;;;;;;16.97;10.80;;;;;;;;;;5075235;28;20035;-77
2023/01/27 10:42:03;;;;;;;4.73;3.80;;;;;;;;;;5083404;28;20111;-76
2023/01/27 10:44:38;;;;;;;5.13;3.77;;;;;;;;;;5072241;28;20103;-76
2023/01/27 10:47:11;;;;;;;7.97;4.63;;;;;;;;;;5096416;28;20097;-77
2023/01/27 10:49:43;;;;;;;4.77;3.93;;;;;;;;;;5077528;28;20028;-76
2023/01/27 10:52:11;;;;;;;6.70;3.97;;;;;;;;;;5090710;28;20028;-76
2023/01/27 10:54:42;;;;;;;5.77;4.27;;;;;;;;;;5095786;28;20024;-76
2023/01/27 10:57:15;;;;;;;3.47;2.70;;;;;;;;;;5100086;28;20035;-77
2023/01/27 11:00:16;;;;;;;3.85;3.13;;;;;;;;;;5095395;28;20024;-77
2023/01/27 11:02:44;;;;;;;3.53;2.67;;;;;;;;;;4990491;28;20049;-77
2023/01/27 11:05:21;;;;;;;4.23;2.57;;;;;;;;;;5075238;28;20078;-77
2023/01/27 11:07:59;;;;;;;4.20;2.67;;;;;;;;;;5096095;28;20020;-77
2023/01/27 11:10:29;;;;;;;3.40;2.53;;;;;;;;;;5090967;28;20424;-77
2023/01/27 11:12:56;;;;;;;3.10;2.47;;;;;;;;;;5074773;28;20583;-77
2023/01/27 11:15:22;;;;;;;4.13;3.33;;;;;;;;;;5094642;28;20040;-77
2023/01/27 11:17:51;;;;;;;3.23;2.40;;;;;;;;;;5089017;28;20047;-77
2023/01/27 11:20:28;;;;;;;2.23;1.73;;;;;;;;;;5084388;28;20356;-77
2023/01/27 11:23:09;;;;;;;2.73;1.70;;;;;;;;;;5079669;28;20029;-76
2023/01/27 11:25:55;;;;;;;4.10;1.80;;;;;;;;;;5086249;28;20027;-76
2023/01/27 11:28:40;;;;;;;1.73;1.10;;;;;;;;;;5076574;28;20337;-76
2023/01/27 11:31:25;;;;;;;1.97;1.53;;;;;;;;;;5074506;28;20449;-76
2023/01/27 11:33:57;;;;;;;1.57;1.33;;;;;;;;;;5082599;28;20028;-76
2023/01/27 11:36:24;;;;;;;8.07;2.33;;;;;;;;;;5074000;28;20124;-76
2023/01/27 11:38:53;;;;;;;5.77;1.60;;;;;;;;;;5086175;28;20028;-76
2023/01/27 11:41:19;;;;;;;4.87;2.80;;;;;;;;;;5094594;28;20121;-76
2023/01/27 11:43:46;;;;;;;1.17;0.90;;;;;;;;;;5092425;28;20024;-76
2023/01/27 11:46:14;;;;;;;1.23;1.10;;;;;;;;;;5075171;28;20013;-76
2023/01/27 11:48:43;;;;;;;1.37;1.23;;;;;;;;;;5082528;28;20035;-76
2023/01/27 11:51:12;;;;;;;0.70;0.70;;;;;;;;;;5078124;28;20031;-76
2023/01/27 11:53:39;;;;;;;0.90;0.60;;;;;;;;;;5077912;28;20021;-76
2023/01/27 11:56:08;;;;;;;1.20;1.00;;;;;;;;;;5087666;28;20416;-76
2023/01/27 11:58:47;;;;;;;1.13;0.90;;;;;;;;;;5094326;28;20047;-76
2023/01/27 12:01:16;;;;;;;1.77;1.30;;;;;;;;;;5092138;28;20169;-76
2023/01/27 12:03:51;;;;;;;1.37;0.93;;;;;;;;;;5075853;28;20421;-76
2023/01/27 12:06:26;;;;;;;3.40;1.50;;;;;;;;;;5074115;28;20042;-76
2023/01/27 12:08:52;;;;;;;0.63;0.50;;;;;;;;;;5082740;28;20043;-76
2023/01/27 12:11:18;;;;;;;5.07;0.90;;;;;;;;;;5074438;28;20099;-76
2023/01/27 12:13:50;;;;;;;1.73;1.23;;;;;;;;;;5076474;28;20425;-76
2023/01/27 12:16:16;;;;;;;1.15;0.80;;;;;;;;;;5074762;28;20074;-76
2023/01/27 12:18:48;;;;;;;2.33;1.20;;;;;;;;;;5078661;28;20029;-76
2023/01/27 12:21:15;;;;;;;2.00;1.20;;;;;;;;;;5091772;28;20115;-76
2023/01/27 12:23:52;;;;;;;2.20;1.30;;;;;;;;;;5094075;28;20020;-76
2023/01/27 12:26:29;;;;;;;1.37;0.93;;;;;;;;;;5089921;28;20345;-76
2023/01/27 12:28:57;;;;;;;0.63;0.53;;;;;;;;;;5081019;28;20062;-76
2023/01/27 12:31:27;;;;;;;2.27;1.00;;;;;;;;;;5086377;28;20026;-76
2023/01/27 12:33:59;;;;;;;2.57;1.40;;;;;;;;;;5087037;28;20073;-76
2023/01/27 12:36:25;;;;;;;3.75;0.70;;;;;;;;;;5077085;28;20041;-76
2023/01/27 12:38:52;;;;;;;3.20;0.87;;;;;;;;;;5094114;28;20096;-76
2023/01/27 12:41:26;;;;;;;1.90;0.83;;;;;;;;;;5086781;28;20031;-76
2023/01/27 12:43:52;;;;;;;6.83;4.23;;;;;;;;;;5077414;22;20053;-77
2023/01/27 12:46:20;;;;;;;4.27;2.73;;;;;;;;;;5036568;28;20113;-76
2023/01/27 12:48:50;;;;;;;9.00;6.53;;;;;;;;;;5035209;28;20101;-76
2023/01/27 12:51:16;;;;;;;3.17;2.87;;;;;;;;;;5033494;28;20469;-76
2023/01/27 12:53:43;;;;;;;3.87;1.70;;;;;;;;;;5033581;28;20018;-77
2023/01/27 12:56:09;;;;;;;1.73;1.03;;;;;;;;;;5041007;28;20441;-76
2023/01/27 12:58:45;;;;;;;2.90;1.33;;;;;;;;;;5046307;28;20152;-76
2023/01/27 13:01:26;;;;;;;2.47;1.40;;;;;;;;;;5033656;28;20021;-76
2023/01/27 13:03:58;;;;;;;1.60;1.10;;;;;;;;;;5036756;28;20056;-76
2023/01/27 13:06:29;;;;;;;5.10;4.10;;;;;;;;;;5040221;28;20029;-76
2023/01/27 13:08:57;;;;;;;2.30;1.60;;;;;;;;;;5050523;28;20025;-76
2023/01/27 13:11:30;;;;;;;2.87;1.00;;;;;;;;;;5037659;28;20037;-76
2023/01/27 13:13:57;;;;;;;1.00;0.80;;;;;;;;;;5061774;28;20395;-76
2023/01/27 13:16:27;;;;;;;1.73;1.00;;;;;;;;;;5064714;28;20442;-76
2023/01/27 13:18:57;;;;;;;2.13;1.20;;;;;;;;;;5036809;28;20022;-77
2023/01/27 13:21:29;;;;;;;3.70;1.10;;;;;;;;;;5036901;28;20453;-76
2023/01/27 13:23:55;;;;;;;1.42;1.25;;;;;;;;;;5037204;28;20065;-76
2023/01/27 13:26:26;;;;;;;3.07;1.60;;;;;;;;;;5054303;28;20099;-76
2023/01/27 13:29:02;;;;;;;2.60;1.60;;;;;;;;;;5036726;28;20038;-76
2023/01/27 13:31:46;;;;;;;1.90;1.03;;;;;;;;;;5036943;28;20030;-76
2023/01/27 13:34:21;;;;;;;1.73;1.10;;;;;;;;;;5041745;28;20048;-77
2023/01/27 13:36:53;;;;;;;5.63;1.80;;;;;;;;;;5042632;28;20540;-76
2023/01/27 13:39:38;;;;;;;2.97;1.40;;;;;;;;;;5048762;28;20021;-77
2023/01/27 13:42:04;;;;;;;1.93;1.40;;;;;;;;;;5037739;28;20033;-76
2023/01/27 13:44:54;;;;;;;1.50;1.23;;;;;;;;;;5036647;28;20195;-76
2023/01/27 13:47:24;;;;;;;4.13;1.50;;;;;;;;;;5052045;28;20040;-76
2023/01/27 13:49:53;;;;;;;4.23;1.40;;;;;;;;;;5046106;28;20036;-77
2023/01/27 13:52:19;;;;;;;2.30;1.40;;;;;;;;;;5050076;28;20025;-77
2023/01/27 13:54:45;;;;;;;24.67;3.27;;;;;;;;;;5055895;28;20040;-77
2023/01/27 13:57:31;;;;;;;22.27;3.07;;;;;;;;;;5048038;28;20026;-77
2023/01/27 14:00:03;;;;;;;2.77;1.60;;;;;;;;;;5036976;28;20486;-76
2023/01/27 14:02:47;;;;;;;2.70;1.42;;;;;;;;;;5036062;28;20029;-77
2023/01/27 14:05:16;;;;;;;2.53;1.83;;;;;;;;;;5038660;28;20036;-77
2023/01/27 14:07:51;;;;;;;3.23;2.07;;;;;;;;;;5065312;28;20025;-76
2023/01/27 14:10:24;;;;;;;5.03;2.20;;;;;;;;;;5036296;28;20029;-76
2023/01/27 14:12:54;;;;;;;3.17;2.47;;;;;;;;;;5035744;28;20454;-76
2023/01/27 14:15:32;;;;;;;5.07;2.97;;;;;;;;;;5037845;28;20084;-77
2023/01/27 14:18:00;;;;;;;2.80;2.20;;;;;;;;;;5025354;28;20071;-77
2023/01/27 14:20:26;;;;;;;2.23;2.03;;;;;;;;;;5044826;28;20033;-77
2023/01/27 14:22:55;;;;;;;3.47;2.30;;;;;;;;;;5035623;28;20026;-76
2023/01/27 14:25:30;;;;;;;3.63;2.63;;;;;;;;;;5035762;28;20068;-76
2023/01/27 14:28:00;;;;;;;2.30;1.93;;;;;;;;;;5035666;28;20036;-77
2023/01/27 14:30:32;;;;;;;3.63;2.00;;;;;;;;;;5064191;28;20021;-76
2023/01/27 14:33:06;;;;;;;3.97;1.95;;;;;;;;;;5058479;28;20095;-77
2023/01/27 14:35:55;;;;;;;3.20;1.77;;;;;;;;;;5062403;28;20186;-77
2023/01/27 14:38:21;;;;;;;2.57;1.90;;;;;;;;;;5036392;28;20025;-76
2023/01/27 14:41:02;;;;;;;2.53;1.37;;;;;;;;;;5035018;28;20069;-76
2023/01/27 14:43:35;;;;;;;2.77;1.67;;;;;;;;;;5035308;28;20029;-76
2023/01/27 14:46:17;;;;;;;2.20;2.00;;;;;;;;;;5035464;28;20124;-77
2023/01/27 14:48:51;;;;;;;2.75;1.98;;;;;;;;;;5035279;28;20026;-77
2023/01/27 14:51:17;;;;;;;5.20;2.20;;;;;;;;;;5035513;28;20033;-77
2023/01/27 14:53:43;;;;;;;2.73;2.00;;;;;;;;;;5035336;28;20034;-76
2023/01/27 14:56:18;;;;;;;5.10;2.23;;;;;;;;;;5034661;28;20107;-76
2023/01/27 14:59:03;;;;;;;4.10;2.47;;;;;;;;;;5035025;28;20072;-76
2023/01/27 15:01:35;;;;;;;3.53;1.50;;;;;;;;;;5031636;28;20112;-76
2023/01/27 15:04:04;;;;;;;2.13;1.70;;;;;;;;;;5041160;28;20033;-76
2023/01/27 15:06:37;;;;;;;2.87;1.30;;;;;;;;;;5035793;28;20139;-76
2023/01/27 15:09:11;;;;;;;2.35;1.80;;;;;;;;;;5035783;28;20037;-76
2023/01/27 15:11:49;;;;;;;2.60;2.27;;;;;;;;;;5036311;28;20021;-76
2023/01/27 15:14:34;;;;;;;3.57;1.70;;;;;;;;;;5034673;28;20030;-77
2023/01/27 15:17:00;;;;;;;2.70;2.13;;;;;;;;;;5038175;28;20098;-77
2023/01/27 15:19:29;;;;;;;5.17;1.50;;;;;;;;;;5037962;28;20391;-76
2023/01/27 15:21:55;;;;;;;2.20;2.00;;;;;;;;;;5068032;28;20025;-78